sensor_id;sensor_type;location;lat;lon;timestamp;P1;durP1;ratioP1;P2;durP2;ratioP2
29984;SDS011;17387;42.690;23.328;2022-11-23T00:00:23;29.15;;;20.17;;
29984;SDS011;17387;42.690;23.328;2022-11-23T00:02:56;29.77;;;19.67;;
29984;SDS011;17387;42.690;23.328;2022-11-23T00:05:22;30.10;;;20.23;;
29984;SDS011;17387;42.690;23.328;2022-11-23T00:07:48;28.90;;;19.30;;
29984;SDS011;17387;42.690;23.328;2022-11-23T00:10:14;26.85;;;19.23;;
29984;SDS011;17387;42.690;23.328;2022-11-23T00:12:39;26.17;;;17.75;;
29984;SDS011;17387;42.690;23.328;2022-11-23T00:15:05;29.00;;;18.77;;
29984;SDS011;17387;42.690;23.328;2022-11-23T00:17:31;27.05;;;18.15;;
29984;SDS011;17387;42.690;23.328;2022-11-23T00:19:57;28.58;;;18.88;;
29984;SDS011;17387;42.690;23.328;2022-11-23T00:22:22;29.02;;;19.42;;
29984;SDS011;17387;42.690;23.328;2022-11-23T00:24:48;29.67;;;18.85;;
29984;SDS011;17387;42.690;23.328;2022-11-23T00:27:14;26.65;;;19.30;;
29984;SDS011;17387;42.690;23.328;2022-11-23T00:29:39;31.02;;;21.00;;
29984;SDS011;17387;42.690;23.328;2022-11-23T00:32:05;33.05;;;22.25;;
29984;SDS011;17387;42.690;23.328;2022-11-23T00:34:30;34.47;;;23.45;;
29984;SDS011;17387;42.690;23.328;2022-11-23T00:36:56;35.13;;;23.00;;
29984;SDS011;17387;42.690;23.328;2022-11-23T00:39:21;32.85;;;22.40;;
29984;SDS011;17387;42.690;23.328;2022-11-23T00:41:46;38.58;;;23.98;;
29984;SDS011;17387;42.690;23.328;2022-11-23T00:44:12;37.38;;;24.50;;
29984;SDS011;17387;42.690;23.328;2022-11-23T00:46:37;35.63;;;23.42;;
29984;SDS011;17387;42.690;23.328;2022-11-23T00:49:03;36.00;;;22.48;;
29984;SDS011;17387;42.690;23.328;2022-11-23T00:51:29;33.05;;;22.05;;
29984;SDS011;17387;42.690;23.328;2022-11-23T00:53:56;33.67;;;22.05;;
29984;SDS011;17387;42.690;23.328;2022-11-23T00:56:23;34.03;;;21.73;;
29984;SDS011;17387;42.690;23.328;2022-11-23T00:58:49;33.60;;;22.65;;
29984;SDS011;17387;42.690;23.328;2022-11-23T01:01:16;36.63;;;22.77;;
29984;SDS011;17387;42.690;23.328;2022-11-23T01:03:45;32.67;;;22.98;;
29984;SDS011;17387;42.690;23.328;2022-11-23T01:06:15;30.90;;;21.58;;
29984;SDS011;17387;42.690;23.328;2022-11-23T01:08:43;32.20;;;20.98;;
29984;SDS011;17387;42.690;23.328;2022-11-23T01:11:16;34.63;;;21.98;;
29984;SDS011;17387;42.690;23.328;2022-11-23T01:13:42;31.60;;;21.13;;
29984;SDS011;17387;42.690;23.328;2022-11-23T01:16:15;30.33;;;20.30;;
29984;SDS011;17387;42.690;23.328;2022-11-23T01:18:52;34.17;;;20.10;;
29984;SDS011;17387;42.690;23.328;2022-11-23T01:21:18;27.52;;;18.92;;
29984;SDS011;17387;42.690;23.328;2022-11-23T01:23:43;26.13;;;18.10;;
29984;SDS011;17387;42.690;23.328;2022-11-23T01:26:09;26.30;;;17.88;;
29984;SDS011;17387;42.690;23.328;2022-11-23T01:28:35;25.10;;;15.95;;
29984;SDS011;17387;42.690;23.328;2022-11-23T01:31:06;26.48;;;17.63;;
29984;SDS011;17387;42.690;23.328;2022-11-23T01:33:36;23.20;;;15.80;;
29984;SDS011;17387;42.690;23.328;2022-11-23T01:36:09;28.23;;;16.90;;
29984;SDS011;17387;42.690;23.328;2022-11-23T01:38:34;25.63;;;17.50;;
29984;SDS011;17387;42.690;23.328;2022-11-23T01:41:00;26.40;;;17.17;;
29984;SDS011;17387;42.690;23.328;2022-11-23T01:43:25;23.13;;;17.15;;
29984;SDS011;17387;42.690;23.328;2022-11-23T01:46:00;28.73;;;19.25;;
29984;SDS011;17387;42.690;23.328;2022-11-23T01:51:14;29.77;;;19.65;;
29984;SDS011;17387;42.690;23.328;2022-11-23T01:53:43;26.25;;;18.92;;
29984;SDS011;17387;42.690;23.328;2022-11-23T01:56:16;27.52;;;18.13;;
29984;SDS011;17387;42.690;23.328;2022-11-23T01:58:46;29.65;;;19.33;;
29984;SDS011;17387;42.690;23.328;2022-11-23T02:01:15;28.85;;;19.38;;
29984;SDS011;17387;42.690;23.328;2022-11-23T02:03:41;31.65;;;20.98;;
29984;SDS011;17387;42.690;23.328;2022-11-23T02:06:10;32.53;;;21.17;;
29984;SDS011;17387;42.690;23.328;2022-11-23T02:08:39;32.63;;;21.75;;
29984;SDS011;17387;42.690;23.328;2022-11-23T02:11:05;31.30;;;21.20;;
29984;SDS011;17387;42.690;23.328;2022-11-23T02:13:31;34.35;;;21.95;;
29984;SDS011;17387;42.690;23.328;2022-11-23T02:15:57;33.13;;;21.63;;
29984;SDS011;17387;42.690;23.328;2022-11-23T02:18:27;33.40;;;22.35;;
29984;SDS011;17387;42.690;23.328;2022-11-23T02:20:55;33.75;;;22.73;;
29984;SDS011;17387;42.690;23.328;2022-11-23T02:26:10;31.77;;;22.02;;
29984;SDS011;17387;42.690;23.328;2022-11-23T02:28:41;30.05;;;20.83;;
29984;SDS011;17387;42.690;23.328;2022-11-23T02:31:09;32.65;;;21.55;;
29984;SDS011;17387;42.690;23.328;2022-11-23T02:33:38;32.33;;;21.40;;
29984;SDS011;17387;42.690;23.328;2022-11-23T02:39:00;32.47;;;21.80;;
29984;SDS011;17387;42.690;23.328;2022-11-23T02:41:51;31.17;;;21.60;;
29984;SDS011;17387;42.690;23.328;2022-11-23T02:44:24;34.95;;;22.40;;
29984;SDS011;17387;42.690;23.328;2022-11-23T02:46:55;38.38;;;23.83;;
29984;SDS011;17387;42.690;23.328;2022-11-23T02:49:22;38.13;;;25.40;;
29984;SDS011;17387;42.690;23.328;2022-11-23T02:51:48;36.28;;;25.40;;
29984;SDS011;17387;42.690;23.328;2022-11-23T02:54:13;34.20;;;23.60;;
29984;SDS011;17387;42.690;23.328;2022-11-23T02:56:38;37.70;;;23.42;;
29984;SDS011;17387;42.690;23.328;2022-11-23T02:59:04;34.00;;;22.85;;
29984;SDS011;17387;42.690;23.328;2022-11-23T03:01:29;32.67;;;22.92;;
29984;SDS011;17387;42.690;23.328;2022-11-23T03:03:55;31.65;;;22.92;;
29984;SDS011;17387;42.690;23.328;2022-11-23T03:06:20;32.15;;;22.83;;
29984;SDS011;17387;42.690;23.328;2022-11-23T03:08:45;28.35;;;21.33;;
29984;SDS011;17387;42.690;23.328;2022-11-23T03:11:11;31.20;;;21.58;;
29984;SDS011;17387;42.690;23.328;2022-11-23T03:13:36;31.88;;;22.40;;
29984;SDS011;17387;42.690;23.328;2022-11-23T03:16:01;39.35;;;23.55;;
29984;SDS011;17387;42.690;23.328;2022-11-23T03:18:27;36.15;;;23.10;;
29984;SDS011;17387;42.690;23.328;2022-11-23T03:20:52;33.83;;;23.85;;
29984;SDS011;17387;42.690;23.328;2022-11-23T03:23:18;32.75;;;22.83;;
29984;SDS011;17387;42.690;23.328;2022-11-23T03:25:43;27.98;;;21.25;;
29984;SDS011;17387;42.690;23.328;2022-11-23T03:28:08;30.15;;;20.67;;
29984;SDS011;17387;42.690;23.328;2022-11-23T03:30:34;31.08;;;21.58;;
29984;SDS011;17387;42.690;23.328;2022-11-23T03:32:59;32.60;;;21.65;;
29984;SDS011;17387;42.690;23.328;2022-11-23T03:35:25;27.95;;;18.77;;
29984;SDS011;17387;42.690;23.328;2022-11-23T03:37:50;26.92;;;19.38;;
29984;SDS011;17387;42.690;23.328;2022-11-23T03:40:16;26.92;;;18.38;;
29984;SDS011;17387;42.690;23.328;2022-11-23T03:42:41;30.17;;;20.38;;
29984;SDS011;17387;42.690;23.328;2022-11-23T03:45:07;32.40;;;20.33;;
29984;SDS011;17387;42.690;23.328;2022-11-23T03:47:33;26.95;;;18.98;;
29984;SDS011;17387;42.690;23.328;2022-11-23T03:49:59;27.23;;;19.02;;
29984;SDS011;17387;42.690;23.328;2022-11-23T03:52:24;32.03;;;19.67;;
29984;SDS011;17387;42.690;23.328;2022-11-23T03:54:50;28.77;;;19.40;;
29984;SDS011;17387;42.690;23.328;2022-11-23T03:57:15;27.90;;;19.58;;
29984;SDS011;17387;42.690;23.328;2022-11-23T03:59:41;29.08;;;20.20;;
29984;SDS011;17387;42.690;23.328;2022-11-23T04:02:06;28.08;;;20.13;;
29984;SDS011;17387;42.690;23.328;2022-11-23T04:04:32;30.90;;;20.38;;
29984;SDS011;17387;42.690;23.328;2022-11-23T04:06:58;27.63;;;19.40;;
29984;SDS011;17387;42.690;23.328;2022-11-23T04:09:23;26.90;;;18.30;;
29984;SDS011;17387;42.690;23.328;2022-11-23T04:11:49;31.52;;;18.55;;
29984;SDS011;17387;42.690;23.328;2022-11-23T04:14:14;29.90;;;18.58;;
29984;SDS011;17387;42.690;23.328;2022-11-23T04:16:40;28.02;;;19.50;;
29984;SDS011;17387;42.690;23.328;2022-11-23T04:19:05;30.15;;;20.25;;
29984;SDS011;17387;42.690;23.328;2022-11-23T04:21:30;28.48;;;20.35;;
29984;SDS011;17387;42.690;23.328;2022-11-23T04:23:56;27.35;;;20.25;;
29984;SDS011;17387;42.690;23.328;2022-11-23T04:26:21;27.23;;;20.00;;
29984;SDS011;17387;42.690;23.328;2022-11-23T04:28:47;27.45;;;19.83;;
29984;SDS011;17387;42.690;23.328;2022-11-23T04:31:12;28.30;;;20.02;;
29984;SDS011;17387;42.690;23.328;2022-11-23T04:33:37;30.45;;;20.73;;
29984;SDS011;17387;42.690;23.328;2022-11-23T04:36:03;30.20;;;20.42;;
29984;SDS011;17387;42.690;23.328;2022-11-23T04:38:28;29.45;;;21.10;;
29984;SDS011;17387;42.690;23.328;2022-11-23T04:40:54;30.35;;;20.25;;
29984;SDS011;17387;42.690;23.328;2022-11-23T04:43:19;30.92;;;20.65;;
29984;SDS011;17387;42.690;23.328;2022-11-23T04:45:45;27.77;;;19.50;;
29984;SDS011;17387;42.690;23.328;2022-11-23T04:48:10;32.42;;;22.33;;
29984;SDS011;17387;42.690;23.328;2022-11-23T04:50:36;33.90;;;22.42;;
29984;SDS011;17387;42.690;23.328;2022-11-23T04:53:02;32.67;;;23.27;;
29984;SDS011;17387;42.690;23.328;2022-11-23T04:55:28;39.35;;;24.50;;
29984;SDS011;17387;42.690;23.328;2022-11-23T04:57:53;36.65;;;23.90;;
29984;SDS011;17387;42.690;23.328;2022-11-23T05:00:19;37.30;;;24.52;;
29984;SDS011;17387;42.690;23.328;2022-11-23T05:02:44;37.50;;;24.52;;
29984;SDS011;17387;42.690;23.328;2022-11-23T05:05:09;35.30;;;24.83;;
29984;SDS011;17387;42.690;23.328;2022-11-23T05:07:35;37.78;;;27.55;;
29984;SDS011;17387;42.690;23.328;2022-11-23T05:10:01;38.50;;;26.20;;
29984;SDS011;17387;42.690;23.328;2022-11-23T05:12:27;40.95;;;28.85;;
29984;SDS011;17387;42.690;23.328;2022-11-23T05:14:52;43.95;;;30.15;;
29984;SDS011;17387;42.690;23.328;2022-11-23T05:17:18;46.35;;;30.90;;
29984;SDS011;17387;42.690;23.328;2022-11-23T05:19:43;44.35;;;30.10;;
29984;SDS011;17387;42.690;23.328;2022-11-23T05:22:09;43.35;;;29.08;;
29984;SDS011;17387;42.690;23.328;2022-11-23T05:24:34;42.55;;;28.58;;
29984;SDS011;17387;42.690;23.328;2022-11-23T05:27:00;43.92;;;29.70;;
29984;SDS011;17387;42.690;23.328;2022-11-23T05:29:25;45.45;;;30.05;;
29984;SDS011;17387;42.690;23.328;2022-11-23T05:31:51;42.65;;;29.02;;
29984;SDS011;17387;42.690;23.328;2022-11-23T05:34:16;42.17;;;28.70;;
29984;SDS011;17387;42.690;23.328;2022-11-23T05:36:41;45.15;;;30.70;;
29984;SDS011;17387;42.690;23.328;2022-11-23T05:39:07;37.33;;;26.58;;
29984;SDS011;17387;42.690;23.328;2022-11-23T05:41:33;38.75;;;28.33;;
29984;SDS011;17387;42.690;23.328;2022-11-23T05:43:59;41.15;;;28.83;;
29984;SDS011;17387;42.690;23.328;2022-11-23T05:46:24;41.25;;;29.40;;
29984;SDS011;17387;42.690;23.328;2022-11-23T05:48:50;43.03;;;29.17;;
29984;SDS011;17387;42.690;23.328;2022-11-23T05:51:15;42.97;;;30.05;;
29984;SDS011;17387;42.690;23.328;2022-11-23T05:53:40;39.88;;;28.88;;
29984;SDS011;17387;42.690;23.328;2022-11-23T05:56:06;36.97;;;27.70;;
29984;SDS011;17387;42.690;23.328;2022-11-23T05:58:31;38.63;;;28.00;;
29984;SDS011;17387;42.690;23.328;2022-11-23T06:01:00;40.65;;;29.85;;
29984;SDS011;17387;42.690;23.328;2022-11-23T06:03:25;43.90;;;31.65;;
29984;SDS011;17387;42.690;23.328;2022-11-23T06:05:51;47.40;;;31.08;;
29984;SDS011;17387;42.690;23.328;2022-11-23T06:08:17;43.40;;;31.50;;
29984;SDS011;17387;42.690;23.328;2022-11-23T06:10:42;45.67;;;31.75;;
29984;SDS011;17387;42.690;23.328;2022-11-23T06:13:08;45.25;;;32.83;;
29984;SDS011;17387;42.690;23.328;2022-11-23T06:15:33;46.58;;;32.25;;
29984;SDS011;17387;42.690;23.328;2022-11-23T06:17:59;47.63;;;32.97;;
29984;SDS011;17387;42.690;23.328;2022-11-23T06:20:26;44.53;;;33.13;;
29984;SDS011;17387;42.690;23.328;2022-11-23T06:22:53;48.08;;;33.35;;
29984;SDS011;17387;42.690;23.328;2022-11-23T06:25:19;47.35;;;33.28;;
29984;SDS011;17387;42.690;23.328;2022-11-23T06:27:52;43.28;;;32.03;;
29984;SDS011;17387;42.690;23.328;2022-11-23T06:30:22;43.75;;;32.30;;
29984;SDS011;17387;42.690;23.328;2022-11-23T06:32:48;45.10;;;32.53;;
29984;SDS011;17387;42.690;23.328;2022-11-23T06:35:13;45.10;;;31.52;;
29984;SDS011;17387;42.690;23.328;2022-11-23T06:37:39;41.85;;;31.35;;
29984;SDS011;17387;42.690;23.328;2022-11-23T06:40:04;43.40;;;31.85;;
29984;SDS011;17387;42.690;23.328;2022-11-23T06:42:30;42.97;;;31.95;;
29984;SDS011;17387;42.690;23.328;2022-11-23T06:44:56;44.70;;;33.22;;
29984;SDS011;17387;42.690;23.328;2022-11-23T06:47:21;49.65;;;34.25;;
29984;SDS011;17387;42.690;23.328;2022-11-23T06:49:47;49.67;;;32.90;;
29984;SDS011;17387;42.690;23.328;2022-11-23T06:52:12;50.03;;;36.72;;
29984;SDS011;17387;42.690;23.328;2022-11-23T06:54:38;52.17;;;37.20;;
29984;SDS011;17387;42.690;23.328;2022-11-23T06:57:06;47.17;;;33.70;;
29984;SDS011;17387;42.690;23.328;2022-11-23T06:59:32;46.97;;;33.20;;
29984;SDS011;17387;42.690;23.328;2022-11-23T07:01:57;46.70;;;33.08;;
29984;SDS011;17387;42.690;23.328;2022-11-23T07:04:23;44.42;;;31.63;;
29984;SDS011;17387;42.690;23.328;2022-11-23T07:06:48;43.67;;;32.22;;
29984;SDS011;17387;42.690;23.328;2022-11-23T07:09:13;47.97;;;31.98;;
29984;SDS011;17387;42.690;23.328;2022-11-23T07:11:39;45.10;;;30.48;;
29984;SDS011;17387;42.690;23.328;2022-11-23T07:14:04;45.30;;;28.38;;
29984;SDS011;17387;42.690;23.328;2022-11-23T07:16:30;42.55;;;30.20;;
29984;SDS011;17387;42.690;23.328;2022-11-23T07:18:56;39.35;;;27.77;;
29984;SDS011;17387;42.690;23.328;2022-11-23T07:21:21;38.38;;;27.27;;
29984;SDS011;17387;42.690;23.328;2022-11-23T07:23:47;39.63;;;25.80;;
29984;SDS011;17387;42.690;23.328;2022-11-23T07:26:12;33.85;;;25.00;;
29984;SDS011;17387;42.690;23.328;2022-11-23T07:28:38;38.28;;;26.20;;
29984;SDS011;17387;42.690;23.328;2022-11-23T07:31:03;38.83;;;25.75;;
29984;SDS011;17387;42.690;23.328;2022-11-23T07:33:28;33.75;;;24.45;;
29984;SDS011;17387;42.690;23.328;2022-11-23T07:35:54;38.35;;;27.25;;
29984;SDS011;17387;42.690;23.328;2022-11-23T07:38:20;34.92;;;25.92;;
29984;SDS011;17387;42.690;23.328;2022-11-23T07:40:47;37.25;;;26.58;;
29984;SDS011;17387;42.690;23.328;2022-11-23T07:43:13;36.85;;;26.58;;
29984;SDS011;17387;42.690;23.328;2022-11-23T07:45:38;34.85;;;25.40;;
29984;SDS011;17387;42.690;23.328;2022-11-23T07:48:04;32.20;;;25.08;;
29984;SDS011;17387;42.690;23.328;2022-11-23T07:50:32;37.25;;;26.90;;
29984;SDS011;17387;42.690;23.328;2022-11-23T07:53:00;43.08;;;30.33;;
29984;SDS011;17387;42.690;23.328;2022-11-23T07:55:26;36.75;;;25.58;;
29984;SDS011;17387;42.690;23.328;2022-11-23T07:57:52;40.58;;;26.30;;
29984;SDS011;17387;42.690;23.328;2022-11-23T08:00:19;39.55;;;26.98;;
29984;SDS011;17387;42.690;23.328;2022-11-23T08:02:45;35.83;;;27.75;;
29984;SDS011;17387;42.690;23.328;2022-11-23T08:05:11;38.03;;;27.00;;
29984;SDS011;17387;42.690;23.328;2022-11-23T08:07:37;42.13;;;29.13;;
29984;SDS011;17387;42.690;23.328;2022-11-23T08:10:02;37.45;;;27.75;;
29984;SDS011;17387;42.690;23.328;2022-11-23T08:12:29;41.08;;;27.33;;
29984;SDS011;17387;42.690;23.328;2022-11-23T08:14:54;41.35;;;29.30;;
29984;SDS011;17387;42.690;23.328;2022-11-23T08:17:19;44.35;;;32.05;;
29984;SDS011;17387;42.690;23.328;2022-11-23T08:19:45;44.72;;;32.72;;
29984;SDS011;17387;42.690;23.328;2022-11-23T08:22:10;41.22;;;30.08;;
29984;SDS011;17387;42.690;23.328;2022-11-23T08:24:36;34.95;;;27.27;;
29984;SDS011;17387;42.690;23.328;2022-11-23T08:27:01;35.05;;;28.38;;
29984;SDS011;17387;42.690;23.328;2022-11-23T08:29:28;32.47;;;26.05;;
29984;SDS011;17387;42.690;23.328;2022-11-23T08:31:54;35.17;;;26.38;;
29984;SDS011;17387;42.690;23.328;2022-11-23T08:34:19;34.00;;;25.85;;
29984;SDS011;17387;42.690;23.328;2022-11-23T08:36:45;34.90;;;26.38;;
29984;SDS011;17387;42.690;23.328;2022-11-23T08:39:12;41.15;;;27.77;;
29984;SDS011;17387;42.690;23.328;2022-11-23T08:41:38;50.35;;;32.83;;
29984;SDS011;17387;42.690;23.328;2022-11-23T08:44:04;42.10;;;31.33;;
29984;SDS011;17387;42.690;23.328;2022-11-23T08:46:32;42.10;;;30.50;;
29984;SDS011;17387;42.690;23.328;2022-11-23T08:48:57;44.35;;;31.67;;
29984;SDS011;17387;42.690;23.328;2022-11-23T08:51:23;47.90;;;33.03;;
29984;SDS011;17387;42.690;23.328;2022-11-23T08:53:49;45.95;;;32.83;;
29984;SDS011;17387;42.690;23.328;2022-11-23T08:56:15;32.63;;;24.30;;
29984;SDS011;17387;42.690;23.328;2022-11-23T08:58:41;36.22;;;25.48;;
29984;SDS011;17387;42.690;23.328;2022-11-23T09:01:07;32.88;;;25.13;;
29984;SDS011;17387;42.690;23.328;2022-11-23T09:03:34;31.55;;;24.00;;
29984;SDS011;17387;42.690;23.328;2022-11-23T09:05:59;34.80;;;23.95;;
29984;SDS011;17387;42.690;23.328;2022-11-23T09:08:25;31.55;;;24.38;;
29984;SDS011;17387;42.690;23.328;2022-11-23T09:10:50;30.30;;;23.13;;
29984;SDS011;17387;42.690;23.328;2022-11-23T09:13:16;32.13;;;22.98;;
29984;SDS011;17387;42.690;23.328;2022-11-23T09:15:41;29.33;;;23.05;;
29984;SDS011;17387;42.690;23.328;2022-11-23T09:18:07;32.47;;;24.15;;
29984;SDS011;17387;42.690;23.328;2022-11-23T09:20:33;30.00;;;23.60;;
29984;SDS011;17387;42.690;23.328;2022-11-23T09:22:59;31.58;;;23.27;;
29984;SDS011;17387;42.690;23.328;2022-11-23T09:25:24;30.55;;;22.02;;
29984;SDS011;17387;42.690;23.328;2022-11-23T09:27:55;30.45;;;22.15;;
29984;SDS011;17387;42.690;23.328;2022-11-23T09:30:24;26.38;;;19.67;;
29984;SDS011;17387;42.690;23.328;2022-11-23T09:32:50;22.92;;;18.25;;
29984;SDS011;17387;42.690;23.328;2022-11-23T09:35:15;22.55;;;17.05;;
29984;SDS011;17387;42.690;23.328;2022-11-23T09:37:41;29.55;;;19.23;;
29984;SDS011;17387;42.690;23.328;2022-11-23T09:40:07;29.88;;;22.38;;
29984;SDS011;17387;42.690;23.328;2022-11-23T09:51:00;23.75;;;17.60;;
29984;SDS011;17387;42.690;23.328;2022-11-23T09:56:21;24.90;;;16.98;;
29984;SDS011;17387;42.690;23.328;2022-11-23T09:58:52;23.88;;;17.83;;
29984;SDS011;17387;42.690;23.328;2022-11-23T10:01:19;21.50;;;16.08;;
29984;SDS011;17387;42.690;23.328;2022-11-23T10:03:45;23.52;;;15.65;;
29984;SDS011;17387;42.690;23.328;2022-11-23T10:14:43;23.00;;;16.73;;
29984;SDS011;17387;42.690;23.328;2022-11-23T10:23:50;25.85;;;16.33;;
29984;SDS011;17387;42.690;23.328;2022-11-23T10:26:23;16.77;;;12.57;;
29984;SDS011;17387;42.690;23.328;2022-11-23T10:28:53;20.58;;;14.48;;
29984;SDS011;17387;42.690;23.328;2022-11-23T10:31:21;27.73;;;16.48;;
29984;SDS011;17387;42.690;23.328;2022-11-23T10:33:57;19.38;;;11.93;;
29984;SDS011;17387;42.690;23.328;2022-11-23T10:36:28;16.10;;;11.15;;
29984;SDS011;17387;42.690;23.328;2022-11-23T10:38:56;28.10;;;18.65;;
29984;SDS011;17387;42.690;23.328;2022-11-23T10:41:23;22.95;;;13.50;;
29984;SDS011;17387;42.690;23.328;2022-11-23T10:46:43;15.63;;;10.43;;
29984;SDS011;17387;42.690;23.328;2022-11-23T10:49:12;13.73;;;9.88;;
29984;SDS011;17387;42.690;23.328;2022-11-23T10:51:39;10.73;;;7.07;;
29984;SDS011;17387;42.690;23.328;2022-11-23T10:54:07;8.32;;;6.70;;
29984;SDS011;17387;42.690;23.328;2022-11-23T10:56:45;11.38;;;7.38;;
29984;SDS011;17387;42.690;23.328;2022-11-23T11:02:15;13.60;;;8.15;;
29984;SDS011;17387;42.690;23.328;2022-11-23T11:04:45;16.42;;;8.60;;
29984;SDS011;17387;42.690;23.328;2022-11-23T11:07:22;15.15;;;8.70;;
29984;SDS011;17387;42.690;23.328;2022-11-23T11:09:53;22.60;;;11.95;;
29984;SDS011;17387;42.690;23.328;2022-11-23T11:12:26;17.92;;;10.65;;
29984;SDS011;17387;42.690;23.328;2022-11-23T11:15:00;20.38;;;10.43;;
29984;SDS011;17387;42.690;23.328;2022-11-23T11:17:38;14.48;;;8.07;;
29984;SDS011;17387;42.690;23.328;2022-11-23T11:22:52;27.35;;;14.45;;
29984;SDS011;17387;42.690;23.328;2022-11-23T11:25:25;25.42;;;15.13;;
29984;SDS011;17387;42.690;23.328;2022-11-23T11:27:51;15.10;;;8.40;;
29984;SDS011;17387;42.690;23.328;2022-11-23T11:30:21;18.17;;;9.63;;
29984;SDS011;17387;42.690;23.328;2022-11-23T11:35:48;14.65;;;7.95;;
29984;SDS011;17387;42.690;23.328;2022-11-23T11:38:18;21.30;;;10.83;;
29984;SDS011;17387;42.690;23.328;2022-11-23T11:40:50;10.80;;;7.63;;
29984;SDS011;17387;42.690;23.328;2022-11-23T11:45:58;4.05;;;2.13;;
29984;SDS011;17387;42.690;23.328;2022-11-23T11:53:32;15.82;;;6.28;;
29984;SDS011;17387;42.690;23.328;2022-11-23T11:56:33;10.13;;;4.25;;
29984;SDS011;17387;42.690;23.328;2022-11-23T12:01:31;10.68;;;6.70;;
29984;SDS011;17387;42.690;23.328;2022-11-23T12:04:21;7.18;;;3.60;;
29984;SDS011;17387;42.690;23.328;2022-11-23T12:07:17;13.07;;;6.20;;
29984;SDS011;17387;42.690;23.328;2022-11-23T12:09:47;6.18;;;4.07;;
29984;SDS011;17387;42.690;23.328;2022-11-23T12:12:17;6.85;;;3.90;;
29984;SDS011;17387;42.690;23.328;2022-11-23T12:14:44;25.83;;;11.23;;
29984;SDS011;17387;42.690;23.328;2022-11-23T12:25:35;10.65;;;4.82;;
29984;SDS011;17387;42.690;23.328;2022-11-23T12:40:08;9.02;;;4.00;;
29984;SDS011;17387;42.690;23.328;2022-11-23T12:50:59;4.68;;;2.17;;
29984;SDS011;17387;42.690;23.328;2022-11-23T12:56:20;11.07;;;5.80;;
29984;SDS011;17387;42.690;23.328;2022-11-23T12:59:08;5.25;;;2.70;;
29984;SDS011;17387;42.690;23.328;2022-11-23T13:01:39;11.77;;;6.32;;
29984;SDS011;17387;42.690;23.328;2022-11-23T13:07:17;11.70;;;5.43;;
29984;SDS011;17387;42.690;23.328;2022-11-23T13:12:52;16.00;;;7.82;;
29984;SDS011;17387;42.690;23.328;2022-11-23T13:15:24;4.57;;;2.00;;
29984;SDS011;17387;42.690;23.328;2022-11-23T13:23:25;1.73;;;1.10;;
29984;SDS011;17387;42.690;23.328;2022-11-23T13:28:38;2.75;;;1.38;;
29984;SDS011;17387;42.690;23.328;2022-11-23T13:31:17;1.98;;;0.98;;
29984;SDS011;17387;42.690;23.328;2022-11-23T13:33:45;5.43;;;1.70;;
29984;SDS011;17387;42.690;23.328;2022-11-23T13:36:32;2.88;;;1.48;;
29984;SDS011;17387;42.690;23.328;2022-11-23T13:38:59;3.72;;;1.42;;
29984;SDS011;17387;42.690;23.328;2022-11-23T13:44:23;6.18;;;2.10;;
29984;SDS011;17387;42.690;23.328;2022-11-23T13:47:01;6.50;;;2.53;;
29984;SDS011;17387;42.690;23.328;2022-11-23T13:49:38;7.85;;;4.95;;
29984;SDS011;17387;42.690;23.328;2022-11-23T13:57:29;6.75;;;3.80;;
29984;SDS011;17387;42.690;23.328;2022-11-23T14:06:01;13.57;;;6.68;;
29984;SDS011;17387;42.690;23.328;2022-11-23T14:08:30;11.23;;;3.65;;
29984;SDS011;17387;42.690;23.328;2022-11-23T14:10:58;8.93;;;4.15;;
29984;SDS011;17387;42.690;23.328;2022-11-23T14:13:26;13.85;;;5.78;;
29984;SDS011;17387;42.690;23.328;2022-11-23T14:21:22;10.05;;;3.40;;
29984;SDS011;17387;42.690;23.328;2022-11-23T14:32:26;2.28;;;1.17;;
29984;SDS011;17387;42.690;23.328;2022-11-23T14:41:00;11.73;;;5.00;;
29984;SDS011;17387;42.690;23.328;2022-11-23T14:43:31;7.65;;;3.13;;
29984;SDS011;17387;42.690;23.328;2022-11-23T14:45:59;5.53;;;2.40;;
29984;SDS011;17387;42.690;23.328;2022-11-23T14:48:31;4.72;;;2.22;;
29984;SDS011;17387;42.690;23.328;2022-11-23T14:53:56;6.80;;;2.17;;
29984;SDS011;17387;42.690;23.328;2022-11-23T14:59:00;6.03;;;3.53;;
29984;SDS011;17387;42.690;23.328;2022-11-23T15:01:28;11.05;;;5.10;;
29984;SDS011;17387;42.690;23.328;2022-11-23T15:03:58;8.50;;;4.10;;
29984;SDS011;17387;42.690;23.328;2022-11-23T15:06:29;9.43;;;4.05;;
29984;SDS011;17387;42.690;23.328;2022-11-23T15:11:39;10.80;;;6.28;;
29984;SDS011;17387;42.690;23.328;2022-11-23T15:14:15;20.35;;;8.95;;
29984;SDS011;17387;42.690;23.328;2022-11-23T15:16:42;17.15;;;6.80;;
29984;SDS011;17387;42.690;23.328;2022-11-23T15:19:27;35.83;;;20.23;;
29984;SDS011;17387;42.690;23.328;2022-11-23T15:21:56;20.77;;;10.75;;
29984;SDS011;17387;42.690;23.328;2022-11-23T15:24:23;18.27;;;8.80;;
29984;SDS011;17387;42.690;23.328;2022-11-23T15:26:50;24.60;;;8.05;;
29984;SDS011;17387;42.690;23.328;2022-11-23T15:32:22;15.63;;;7.07;;
29984;SDS011;17387;42.690;23.328;2022-11-23T15:34:48;13.45;;;6.13;;
29984;SDS011;17387;42.690;23.328;2022-11-23T15:37:13;19.73;;;9.90;;
29984;SDS011;17387;42.690;23.328;2022-11-23T15:39:40;26.52;;;8.55;;
29984;SDS011;17387;42.690;23.328;2022-11-23T15:42:07;18.58;;;7.57;;
29984;SDS011;17387;42.690;23.328;2022-11-23T15:44:41;21.77;;;10.90;;
29984;SDS011;17387;42.690;23.328;2022-11-23T15:47:10;25.40;;;11.55;;
29984;SDS011;17387;42.690;23.328;2022-11-23T15:49:42;31.17;;;15.32;;
29984;SDS011;17387;42.690;23.328;2022-11-23T15:52:12;87.80;;;33.97;;
29984;SDS011;17387;42.690;23.328;2022-11-23T15:54:43;29.42;;;14.35;;
29984;SDS011;17387;42.690;23.328;2022-11-23T15:57:13;23.63;;;10.43;;
29984;SDS011;17387;42.690;23.328;2022-11-23T15:59:43;33.00;;;16.65;;
29984;SDS011;17387;42.690;23.328;2022-11-23T16:07:54;43.75;;;21.80;;
29984;SDS011;17387;42.690;23.328;2022-11-23T16:10:24;44.97;;;19.45;;
29984;SDS011;17387;42.690;23.328;2022-11-23T16:12:52;20.77;;;7.88;;
29984;SDS011;17387;42.690;23.328;2022-11-23T16:18:05;20.17;;;9.40;;
29984;SDS011;17387;42.690;23.328;2022-11-23T16:20:49;20.83;;;9.60;;
29984;SDS011;17387;42.690;23.328;2022-11-23T16:23:21;20.02;;;8.45;;
29984;SDS011;17387;42.690;23.328;2022-11-23T16:28:32;14.48;;;7.85;;
29984;SDS011;17387;42.690;23.328;2022-11-23T16:31:00;12.27;;;6.22;;
29984;SDS011;17387;42.690;23.328;2022-11-23T16:33:26;9.95;;;5.05;;
29984;SDS011;17387;42.690;23.328;2022-11-23T16:35:52;12.45;;;6.13;;
29984;SDS011;17387;42.690;23.328;2022-11-23T16:38:17;12.55;;;5.45;;
29984;SDS011;17387;42.690;23.328;2022-11-23T16:40:43;19.70;;;7.10;;
29984;SDS011;17387;42.690;23.328;2022-11-23T16:43:12;13.15;;;6.38;;
29984;SDS011;17387;42.690;23.328;2022-11-23T16:45:39;7.75;;;3.03;;
29984;SDS011;17387;42.690;23.328;2022-11-23T16:51:04;14.25;;;7.13;;
29984;SDS011;17387;42.690;23.328;2022-11-23T16:53:30;30.13;;;15.73;;
29984;SDS011;17387;42.690;23.328;2022-11-23T16:55:57;29.02;;;13.32;;
29984;SDS011;17387;42.690;23.328;2022-11-23T16:58:24;19.65;;;9.73;;